createdAt,value
2023-06-10T00:01:15.132Z,99828.25
2023-06-10T00:04:17.931Z,99828.44
2023-06-10T00:07:20.156Z,99824.63
2023-06-10T00:10:22.469Z,99822.81
2023-06-10T00:13:25.096Z,99824.41
2023-06-10T00:16:27.454Z,99809.53
2023-06-10T00:19:32.809Z,99819.28
2023-06-10T00:22:34.972Z,99826.03
2023-06-10T00:25:37.239Z,99829.47
2023-06-10T00:28:39.415Z,99810.38
2023-06-10T00:31:41.758Z,99823.03
2023-06-10T00:34:43.984Z,99825.75
2023-06-10T00:37:46.466Z,99831.19
2023-06-10T00:40:48.772Z,99825.88
2023-06-10T00:43:53.998Z,99815.59
2023-06-10T00:46:57.118Z,99831.81
2023-06-10T00:49:59.624Z,99816.03
2023-06-10T00:53:01.856Z,99829.81
2023-06-10T00:56:04.742Z,99835.53
2023-06-10T00:59:07.684Z,99821.34
2023-06-10T01:02:10.437Z,99831.13
2023-06-10T01:05:13.220Z,99830.00
2023-06-10T01:08:47.771Z,99824.19
2023-06-10T01:11:59.572Z,99829.13
2023-06-10T01:15:03.623Z,99821.28
2023-06-10T01:18:10.606Z,99831.03
2023-06-10T01:21:25.758Z,99829.44
2023-06-10T01:24:29.429Z,99832.50
2023-06-10T01:27:34.652Z,99827.91
2023-06-10T01:30:57.516Z,99833.84
2023-06-10T01:33:59.845Z,99826.28
2023-06-10T01:37:02.924Z,99837.44
2023-06-10T01:40:07.205Z,99825.06
2023-06-10T01:43:10.979Z,99829.19
2023-06-10T01:46:13.352Z,99837.63
2023-06-10T01:49:15.850Z,99834.91
2023-06-10T01:52:19.798Z,99836.03
2023-06-10T01:55:22.031Z,99835.63
2023-06-10T01:58:24.242Z,99835.94
2023-06-10T02:01:27.142Z,99825.19
2023-06-10T02:04:29.303Z,99830.81
2023-06-10T02:07:31.498Z,99835.75
2023-06-10T02:10:33.687Z,99836.53
2023-06-10T02:13:36.002Z,99827.59
2023-06-10T02:16:38.273Z,99835.44
2023-06-10T02:19:43.887Z,99842.88
2023-06-10T02:22:46.190Z,99840.97
2023-06-10T02:25:49.303Z,99837.44
2023-06-10T02:28:51.550Z,99840.47
2023-06-10T02:31:54.009Z,99832.41
2023-06-10T02:34:56.564Z,99835.03
2023-06-10T02:38:00.768Z,99838.94
2023-06-10T02:41:04.688Z,99836.25
2023-06-10T02:44:07.580Z,99831.13
2023-06-10T02:47:09.821Z,99837.84
2023-06-10T02:50:13.628Z,99843.75
2023-06-10T02:53:26.787Z,99845.00
2023-06-10T02:56:37.477Z,99840.34
2023-06-10T02:59:42.079Z,99838.13
2023-06-10T03:02:46.964Z,99839.16
2023-06-10T03:05:50.289Z,99835.72
2023-06-10T03:08:54.793Z,99851.91
2023-06-10T03:11:57.164Z,99855.63
2023-06-10T03:14:59.666Z,99860.97
2023-06-10T03:18:03.957Z,99858.56
2023-06-10T03:21:06.318Z,99853.34
2023-06-10T03:24:08.790Z,99853.03
2023-06-10T03:27:12.061Z,99852.22
2023-06-10T03:30:16.663Z,99859.66
2023-06-10T03:33:21.067Z,99865.22
2023-06-10T03:36:23.270Z,99863.91
2023-06-10T03:39:25.664Z,99867.34
2023-06-10T03:42:28.456Z,99860.09
2023-06-10T03:45:31.165Z,99860.41
2023-06-10T03:48:34.178Z,99854.84
2023-06-10T03:51:37.614Z,99855.63
2023-06-10T03:54:39.832Z,99862.78
2023-06-10T03:57:42.144Z,99862.50
2023-06-10T04:00:44.350Z,99858.66
2023-06-10T04:03:46.519Z,99860.41
2023-06-10T04:06:49.852Z,99850.34
2023-06-10T04:09:52.103Z,99843.50
2023-06-10T04:12:54.995Z,99853.25
2023-06-10T04:15:59.051Z,99851.16
2023-06-10T04:19:01.845Z,99852.03
2023-06-10T04:22:05.091Z,99854.84
2023-06-10T04:25:10.818Z,99841.97
2023-06-10T04:28:14.844Z,99864.59
2023-06-10T04:31:18.409Z,99865.47
2023-06-10T04:34:20.789Z,99856.13
2023-06-10T04:37:23.050Z,99859.84
2023-06-10T04:40:25.910Z,99861.38
2023-06-10T04:43:29.487Z,99861.19
2023-06-10T04:46:33.168Z,99856.84
2023-06-10T04:49:36.964Z,99857.66
2023-06-10T04:52:39.144Z,99853.63
2023-06-10T04:55:41.787Z,99851.72
2023-06-10T04:58:44.039Z,99860.28
2023-06-10T05:01:46.411Z,99851.31
2023-06-10T05:04:48.641Z,99842.50
2023-06-10T05:07:50.910Z,99847.13
2023-06-10T05:10:53.356Z,99842.69
2023-06-10T05:13:55.530Z,99847.81
2023-06-10T05:16:58.117Z,99854.38
2023-06-10T05:20:00.609Z,99853.63
2023-06-10T05:23:02.750Z,99862.72
2023-06-10T05:26:04.924Z,99863.41
2023-06-10T05:29:07.169Z,99869.22
2023-06-10T05:32:10.035Z,99867.63
2023-06-10T05:35:12.611Z,99875.84
2023-06-10T05:38:15.235Z,99870.53
2023-06-10T05:41:17.446Z,99869.66
2023-06-10T05:44:19.674Z,99877.16
2023-06-10T05:47:21.883Z,99881.19
2023-06-10T05:50:25.796Z,99881.19
2023-06-10T05:53:27.983Z,99887.00
2023-06-10T05:56:30.459Z,99886.81
2023-06-10T05:59:32.768Z,99875.25
2023-06-10T06:02:35.047Z,99882.19
2023-06-10T06:05:38.542Z,99888.63
2023-06-10T06:08:40.714Z,99876.78
2023-06-10T06:11:42.920Z,99873.13
2023-06-10T06:14:45.896Z,99880.88
2023-06-10T06:17:48.191Z,99869.38
2023-06-10T06:20:50.900Z,99875.50
2023-06-10T06:23:53.237Z,99877.31
2023-06-10T06:26:55.628Z,99883.25
2023-06-10T06:29:57.897Z,99875.69
2023-06-10T06:33:00.778Z,99880.31
2023-06-10T06:36:03.098Z,99885.44
2023-06-10T06:39:05.315Z,99892.69
2023-06-10T06:42:08.344Z,99888.25
2023-06-10T06:45:23.485Z,99891.47
2023-06-10T06:48:25.828Z,99894.97
2023-06-10T06:51:28.153Z,99900.00
2023-06-10T06:54:31.691Z,99899.28
2023-06-10T06:57:33.997Z,99901.25
2023-06-10T07:00:36.223Z,99898.22
2023-06-10T07:03:38.519Z,99904.53
2023-06-10T07:06:40.863Z,99896.03
2023-06-10T07:09:45.847Z,99902.16
2023-06-10T07:12:48.053Z,99895.94
2023-06-10T07:15:50.634Z,99888.00
2023-06-10T07:18:53.945Z,99891.09
2023-06-10T07:21:56.175Z,99897.41
2023-06-10T07:24:59.000Z,99896.81
2023-06-10T07:28:01.194Z,99894.88
2023-06-10T07:31:03.449Z,99899.56
2023-06-10T07:34:05.731Z,99894.28
2023-06-10T07:37:07.988Z,99891.94
2023-06-10T07:40:10.498Z,99894.84
2023-06-10T07:43:12.712Z,99906.06
2023-06-10T07:46:14.891Z,99901.00
2023-06-10T07:49:17.072Z,99901.47
2023-06-10T07:52:19.294Z,99901.28
2023-06-10T07:55:21.590Z,99911.28
2023-06-10T07:58:23.874Z,99910.50
2023-06-10T08:01:26.069Z,99908.13
2023-06-10T08:04:28.351Z,99907.25
2023-06-10T08:07:31.955Z,99906.28
2023-06-10T08:10:34.175Z,99905.66
2023-06-10T08:13:36.375Z,99903.09
2023-06-10T08:16:38.649Z,99895.41
2023-06-10T08:19:40.817Z,99899.91
2023-06-10T08:22:43.038Z,99894.28
2023-06-10T08:25:45.308Z,99890.28
2023-06-10T08:28:47.496Z,99893.97
2023-06-10T08:31:49.822Z,99885.78
2023-06-10T08:34:52.095Z,99887.06
2023-06-10T08:37:54.367Z,99894.94
2023-06-10T08:41:01.797Z,99890.28
2023-06-10T08:44:27.936Z,99887.72
2023-06-10T08:47:32.538Z,99868.50
2023-06-10T08:50:40.028Z,99879.72
2023-06-10T08:53:50.587Z,99875.22
2023-06-10T08:56:54.699Z,99874.78
2023-06-10T08:59:58.363Z,99874.28
2023-06-10T09:03:04.580Z,99860.28
2023-06-10T09:06:07.586Z,99841.00
2023-06-10T09:09:09.907Z,99857.19
2023-06-10T09:12:14.402Z,99852.66
2023-06-10T09:15:18.322Z,99848.78
2023-06-10T09:18:21.459Z,99840.28
2023-06-10T09:21:24.202Z,99852.31
2023-06-10T09:24:26.829Z,99847.50
2023-06-10T09:27:33.147Z,99842.53
2023-06-10T09:30:36.226Z,99848.81
2023-06-10T09:33:40.492Z,99855.72
2023-06-10T09:36:42.747Z,99851.88
2023-06-10T09:39:45.024Z,99852.53
2023-06-10T09:42:50.172Z,99852.38
2023-06-10T09:45:55.264Z,99851.72
2023-06-10T09:48:58.836Z,99850.78
2023-06-10T09:52:01.015Z,99839.56
2023-06-10T09:55:03.812Z,99841.81
2023-06-10T09:58:06.154Z,99842.47
2023-06-10T10:01:15.660Z,99846.16
2023-06-10T10:04:24.830Z,99835.56
2023-06-10T10:07:27.012Z,99837.31
2023-06-10T10:10:29.402Z,99832.34
2023-06-10T10:13:37.179Z,99837.47
2023-06-10T10:16:44.273Z,99830.88
2023-06-10T10:19:52.078Z,99834.25
2023-06-10T10:22:57.926Z,99829.25
2023-06-10T10:26:08.701Z,99831.00
2023-06-10T10:29:29.138Z,99827.63
2023-06-10T10:32:43.916Z,99825.34
2023-06-10T10:35:47.472Z,99820.69
2023-06-10T10:38:53.165Z,99820.53
2023-06-10T10:41:56.227Z,99828.88
2023-06-10T10:44:58.739Z,99829.22
2023-06-10T10:48:06.667Z,99821.78
2023-06-10T10:51:10.036Z,99820.19
2023-06-10T10:54:16.063Z,99816.94
2023-06-10T10:57:19.565Z,99811.66
2023-06-10T11:00:33.040Z,99807.91
2023-06-10T11:03:48.026Z,99805.94
2023-06-10T11:06:54.848Z,99798.84
2023-06-10T11:10:02.910Z,99793.97
2023-06-10T11:13:15.089Z,99787.19
2023-06-10T11:16:20.810Z,99784.25
2023-06-10T11:19:33.790Z,99784.19
2023-06-10T11:23:01.960Z,99785.44
2023-06-10T11:26:12.131Z,99781.84
2023-06-10T11:29:16.734Z,99788.84
2023-06-10T11:32:19.098Z,99785.22
2023-06-10T11:35:22.460Z,99771.34
2023-06-10T11:38:24.749Z,99778.31
2023-06-10T11:41:27.965Z,99771.56
2023-06-10T11:44:31.077Z,99767.91
2023-06-10T11:47:33.344Z,99769.94
2023-06-10T11:50:35.637Z,99773.25
2023-06-10T11:53:37.924Z,99769.31
2023-06-10T11:56:40.127Z,99763.63
2023-06-10T11:59:42.403Z,99757.59
2023-06-10T12:02:44.750Z,99769.13
2023-06-10T12:06:01.470Z,99763.38
2023-06-10T12:09:18.436Z,99757.44
2023-06-10T12:12:26.618Z,99753.34
2023-06-10T12:15:30.077Z,99742.53
2023-06-10T12:18:32.254Z,99746.09
2023-06-10T12:21:36.487Z,99744.28
2023-06-10T12:25:02.549Z,99739.13
2023-06-10T12:28:05.331Z,99733.44
2023-06-10T12:31:11.362Z,99733.91
2023-06-10T12:34:13.535Z,99727.97
2023-06-10T12:37:16.445Z,99725.78
2023-06-10T12:40:18.838Z,99711.50
2023-06-10T12:43:22.201Z,99709.03
2023-06-10T12:46:25.540Z,99706.41
2023-06-10T12:49:27.968Z,99710.97
2023-06-10T12:52:30.299Z,99707.97
2023-06-10T12:55:33.539Z,99710.72
2023-06-10T12:58:35.740Z,99710.25
2023-06-10T13:01:39.177Z,99703.56
2023-06-10T13:04:41.552Z,99699.91
2023-06-10T13:07:45.495Z,99707.31
2023-06-10T13:10:47.680Z,99695.53
2023-06-10T13:13:49.944Z,99693.50
2023-06-10T13:16:52.215Z,99699.78
2023-06-10T13:19:54.467Z,99694.88
2023-06-10T13:22:56.858Z,99704.19
2023-06-10T13:25:59.252Z,99700.22
2023-06-10T13:29:01.407Z,99702.16
2023-06-10T13:32:03.651Z,99695.41
2023-06-10T13:35:06.498Z,99699.66
2023-06-10T13:38:08.758Z,99692.91
2023-06-10T13:41:11.240Z,99699.84
2023-06-10T13:44:13.417Z,99696.66
2023-06-10T13:47:16.185Z,99703.50
2023-06-10T13:50:18.472Z,99711.22
2023-06-10T13:53:20.748Z,99714.16
2023-06-10T13:56:22.923Z,99713.72
2023-06-10T13:59:25.093Z,99721.00
2023-06-10T14:02:27.430Z,99710.94
2023-06-10T14:05:31.886Z,99719.47
2023-06-10T14:08:34.549Z,99713.66
2023-06-10T14:11:36.704Z,99705.06
2023-06-10T14:14:38.897Z,99704.13
2023-06-10T14:17:41.134Z,99704.69
2023-06-10T14:20:43.393Z,99709.69
2023-06-10T14:23:46.579Z,99703.75
2023-06-10T14:26:48.901Z,99706.03
2023-06-10T14:29:51.126Z,99685.16
2023-06-10T14:32:53.431Z,99682.66
2023-06-10T14:35:55.808Z,99689.78
2023-06-10T14:38:58.294Z,99687.53
2023-06-10T14:42:00.538Z,99684.31
2023-06-10T14:45:02.851Z,99681.75
2023-06-10T14:48:05.843Z,99677.31
2023-06-10T14:51:08.034Z,99676.03
2023-06-10T14:54:10.393Z,99681.16
2023-06-10T14:57:12.567Z,99687.44
2023-06-10T15:00:16.553Z,99684.81
2023-06-10T15:03:18.755Z,99687.31
2023-06-10T15:06:23.784Z,99697.25
2023-06-10T15:09:26.130Z,99689.50
2023-06-10T15:12:28.996Z,99706.72
2023-06-10T15:15:31.147Z,99709.69
2023-06-10T15:18:34.244Z,99721.44
2023-06-10T15:21:37.395Z,99715.50
2023-06-10T15:24:39.939Z,99707.06
2023-06-10T15:27:42.132Z,99707.53
2023-06-10T15:30:44.426Z,99696.91
2023-06-10T15:33:47.696Z,99706.13
2023-06-10T15:36:50.285Z,99703.50
2023-06-10T15:39:52.470Z,99706.41
2023-06-10T15:42:54.646Z,99712.31
2023-06-10T15:45:56.845Z,99709.75
2023-06-10T15:48:59.126Z,99714.88
2023-06-10T15:52:01.354Z,99719.25
2023-06-10T15:55:03.836Z,99721.28
2023-06-10T15:58:06.095Z,99719.88
2023-06-10T16:01:10.298Z,99719.59
2023-06-10T16:04:12.796Z,99725.75
2023-06-10T16:07:15.013Z,99720.66
2023-06-10T16:10:17.281Z,99714.44
2023-06-10T16:13:19.560Z,99726.25
2023-06-10T16:16:21.817Z,99727.56
2023-06-10T16:19:27.853Z,99734.03
2023-06-10T16:22:30.084Z,99735.34
2023-06-10T16:25:34.843Z,99739.09
2023-06-10T16:28:37.137Z,99728.31
2023-06-10T16:31:39.368Z,99734.47
2023-06-10T16:34:42.855Z,99727.88
2023-06-10T16:37:45.675Z,99739.44
2023-06-10T16:40:47.911Z,99738.97
2023-06-10T16:43:50.145Z,99737.25
2023-06-10T16:46:52.441Z,99728.59
2023-06-10T16:49:54.686Z,99731.97
2023-06-10T16:53:00.270Z,99736.47
2023-06-10T16:56:03.422Z,99734.06
2023-06-10T16:59:06.937Z,99735.84
2023-06-10T17:02:09.289Z,99748.38
2023-06-10T17:05:12.225Z,99747.09
2023-06-10T17:08:14.724Z,99736.38
2023-06-10T17:11:17.053Z,99756.25
2023-06-10T17:14:19.305Z,99748.91
2023-06-10T17:17:21.739Z,99746.84
2023-06-10T17:20:24.052Z,99761.28
2023-06-10T17:23:26.361Z,99762.09
2023-06-10T17:26:28.614Z,99767.56
2023-06-10T17:29:33.519Z,99775.75
2023-06-10T17:32:35.854Z,99775.44
2023-06-10T17:35:38.471Z,99779.78
2023-06-10T17:38:40.809Z,99789.09
2023-06-10T17:41:43.058Z,99784.59
2023-06-10T17:44:45.443Z,99791.97
2023-06-10T17:47:47.677Z,99790.22
2023-06-10T17:50:49.908Z,99786.66
2023-06-10T17:53:52.268Z,99791.16
2023-06-10T17:56:55.243Z,99794.22
2023-06-10T17:59:57.550Z,99791.00
2023-06-10T18:02:59.886Z,99790.19
2023-06-10T18:06:02.408Z,99797.91
2023-06-10T18:09:04.652Z,99800.47
2023-06-10T18:12:07.623Z,99801.91
2023-06-10T18:15:10.695Z,99800.81
2023-06-10T18:18:13.117Z,99791.66
2023-06-10T18:21:15.578Z,99786.50
2023-06-10T18:24:17.921Z,99780.91
2023-06-10T18:27:20.211Z,99784.75
2023-06-10T18:30:24.809Z,99783.00
2023-06-10T18:33:27.933Z,99786.19
2023-06-10T18:36:30.353Z,99785.25
2023-06-10T18:39:34.221Z,99792.47
2023-06-10T18:42:36.405Z,99790.22
2023-06-10T18:45:43.322Z,99790.72
2023-06-10T18:48:48.209Z,99797.28
2023-06-10T18:51:50.552Z,99792.78
2023-06-10T18:54:52.796Z,99807.19
2023-06-10T18:57:55.036Z,99814.41
2023-06-10T19:00:57.682Z,99821.00
2023-06-10T19:04:00.999Z,99825.97
2023-06-10T19:07:03.536Z,99816.81
2023-06-10T19:10:06.526Z,99826.59
2023-06-10T19:13:09.121Z,99831.41
2023-06-10T19:16:11.269Z,99824.66
2023-06-10T19:19:13.564Z,99827.72
2023-06-10T19:22:15.742Z,99826.13
2023-06-10T19:25:20.149Z,99827.56
2023-06-10T19:28:22.296Z,99831.88
2023-06-10T19:31:24.554Z,99833.00
2023-06-10T19:34:27.325Z,99833.34
2023-06-10T19:37:29.493Z,99825.78
2023-06-10T19:40:32.722Z,99828.50
2023-06-10T19:43:34.969Z,99834.56
2023-06-10T19:46:37.205Z,99832.47
2023-06-10T19:49:39.373Z,99837.75
2023-06-10T19:52:41.575Z,99843.19
2023-06-10T19:55:43.815Z,99838.69
2023-06-10T19:58:47.485Z,99838.53
2023-06-10T20:01:49.755Z,99845.91
2023-06-10T20:04:51.980Z,99842.50
2023-06-10T20:07:54.154Z,99845.56
2023-06-10T20:10:56.375Z,99847.78
2023-06-10T20:13:58.603Z,99832.91
2023-06-10T20:17:00.749Z,99841.06
2023-06-10T20:20:03.335Z,99844.72
2023-06-10T20:23:05.581Z,99841.69
2023-06-10T20:26:07.750Z,99843.44
2023-06-10T20:29:09.971Z,99846.81
2023-06-10T20:32:14.838Z,99843.09
2023-06-10T20:35:17.108Z,99843.72
2023-06-10T20:38:19.372Z,99832.81
2023-06-10T20:41:22.720Z,99841.47
2023-06-10T20:44:25.036Z,99837.00
2023-06-10T20:47:27.214Z,99849.47
2023-06-10T20:50:31.751Z,99839.72
2023-06-10T20:53:33.911Z,99841.78
2023-06-10T20:56:36.281Z,99840.66
2023-06-10T20:59:38.500Z,99833.91
2023-06-10T21:02:40.756Z,99837.44
2023-06-10T21:05:43.016Z,99836.34
2023-06-10T21:08:45.473Z,99828.78
2023-06-10T21:11:47.625Z,99833.91
2023-06-10T21:14:49.789Z,99837.44
2023-06-10T21:17:52.080Z,99844.03
2023-06-10T21:20:54.387Z,99842.72
2023-06-10T21:23:56.784Z,99845.13
2023-06-10T21:26:59.860Z,99849.13
2023-06-10T21:30:03.140Z,99841.41
2023-06-10T21:33:05.848Z,99847.66
2023-06-10T21:36:08.059Z,99846.03
2023-06-10T21:39:10.381Z,99845.44
2023-06-10T21:42:12.827Z,99831.28
2023-06-10T21:45:15.067Z,99848.31
2023-06-10T21:48:17.267Z,99845.69
2023-06-10T21:51:19.633Z,99845.22
2023-06-10T21:54:21.802Z,99835.94
2023-06-10T21:57:24.118Z,99841.47
2023-06-10T22:00:26.349Z,99841.47
2023-06-10T22:03:28.688Z,99840.97
2023-06-10T22:06:31.980Z,99842.22
2023-06-10T22:09:34.206Z,99841.38
2023-06-10T22:12:36.623Z,99840.78
2023-06-10T22:15:38.787Z,99838.56
2023-06-10T22:18:41.326Z,99838.06
2023-06-10T22:21:43.522Z,99839.16
2023-06-10T22:24:50.620Z,99841.56
2023-06-10T22:27:52.907Z,99820.38
2023-06-10T22:30:55.592Z,99843.94
2023-06-10T22:33:57.927Z,99840.22
2023-06-10T22:37:00.165Z,99834.28
2023-06-10T22:40:03.689Z,99845.16
2023-06-10T22:43:05.922Z,99846.31
2023-06-10T22:46:08.128Z,99844.34
2023-06-10T22:49:12.727Z,99843.09
2023-06-10T22:52:14.932Z,99855.13
2023-06-10T22:55:17.193Z,99858.47
2023-06-10T22:58:21.210Z,99852.84
2023-06-10T23:01:23.554Z,99850.44
2023-06-10T23:04:25.850Z,99849.31
2023-06-10T23:07:28.139Z,99841.59
2023-06-10T23:10:30.464Z,99847.22
2023-06-10T23:13:32.666Z,99846.78
2023-06-10T23:16:34.931Z,99842.28
2023-06-10T23:19:41.754Z,99834.25
2023-06-10T23:22:44.120Z,99840.16
2023-06-10T23:25:46.370Z,99832.63
2023-06-10T23:28:48.551Z,99836.97
2023-06-10T23:31:50.947Z,99831.53
2023-06-10T23:34:53.245Z,99825.59
2023-06-10T23:37:55.660Z,99830.84
2023-06-10T23:40:57.882Z,99832.94
2023-06-10T23:44:00.108Z,99824.78
2023-06-10T23:47:02.338Z,99834.38
2023-06-10T23:50:05.520Z,99813.16
2023-06-10T23:53:07.805Z,99819.47
2023-06-10T23:56:10.097Z,99823.16
2023-06-10T23:59:12.276Z,99822.88
